Time;durP1;ratioP1;P1;durP2;ratioP2;P2;SDS_P1;SDS_P2;PMS_P1;PMS_P2;Temp;Humidity;BMP_temperature;BMP_pressure;BME280_temperature;BME280_humidity;BME280_pressure;Samples;Min_cycle;Max_cycle;Signal;HPM_P1;HPM_P2
2022/03/21 00:02:16;;;;;;;19.83;11.93;;;;;;;;;;5019509;28;20022;-74
2022/03/21 00:04:43;;;;;;;17.25;10.27;;;;;;;;;;5000614;28;20022;-74
2022/03/21 00:07:09;;;;;;;17.33;10.20;;;;;;;;;;5021325;28;20036;-75
2022/03/21 00:09:36;;;;;;;19.30;10.55;;;;;;;;;;5019386;28;20029;-74
2022/03/21 00:12:04;;;;;;;20.05;12.57;;;;;;;;;;5004424;28;20030;-75
2022/03/21 00:14:30;;;;;;;13.52;9.25;;;;;;;;;;5020494;28;20025;-74
2022/03/21 00:16:58;;;;;;;14.70;9.20;;;;;;;;;;5021281;28;20618;-75
2022/03/21 00:19:24;;;;;;;18.52;8.95;;;;;;;;;;5018271;28;20030;-74
2022/03/21 00:21:51;;;;;;;15.55;9.13;;;;;;;;;;5017023;28;20025;-74
2022/03/21 00:24:17;;;;;;;14.48;9.20;;;;;;;;;;5015414;28;20049;-75
2022/03/21 00:26:44;;;;;;;15.07;8.32;;;;;;;;;;5020110;28;20060;-73
2022/03/21 00:29:11;;;;;;;16.75;8.60;;;;;;;;;;5000861;28;20029;-75
2022/03/21 00:31:37;;;;;;;12.68;7.97;;;;;;;;;;5021257;28;20030;-75
2022/03/21 00:34:04;;;;;;;16.25;8.95;;;;;;;;;;5017608;28;20089;-74
2022/03/21 00:36:33;;;;;;;16.88;10.30;;;;;;;;;;5001609;28;20034;-74
2022/03/21 00:38:59;;;;;;;13.07;7.95;;;;;;;;;;5019389;28;20069;-75
2022/03/21 00:41:28;;;;;;;17.48;9.55;;;;;;;;;;5019561;28;20064;-75
2022/03/21 00:43:55;;;;;;;15.82;9.73;;;;;;;;;;5015806;28;20025;-75
2022/03/21 00:46:21;;;;;;;16.02;9.80;;;;;;;;;;5016978;28;20036;-75
2022/03/21 00:48:47;;;;;;;18.85;9.85;;;;;;;;;;5019208;28;20037;-75
2022/03/21 00:51:14;;;;;;;16.75;9.70;;;;;;;;;;5020975;28;20049;-75
2022/03/21 00:53:41;;;;;;;20.95;10.65;;;;;;;;;;5001222;28;20033;-75
2022/03/21 00:56:08;;;;;;;16.80;10.35;;;;;;;;;;5002843;28;20065;-75
2022/03/21 00:58:35;;;;;;;20.77;10.32;;;;;;;;;;4999601;28;20408;-75
2022/03/21 01:01:01;;;;;;;19.85;9.95;;;;;;;;;;5020122;28;20038;-76
2022/03/21 01:03:27;;;;;;;15.93;10.00;;;;;;;;;;5015461;28;20400;-75
2022/03/21 01:05:54;;;;;;;16.30;9.48;;;;;;;;;;5017600;28;20042;-76
2022/03/21 01:08:21;;;;;;;17.98;9.85;;;;;;;;;;5021466;28;20056;-73
2022/03/21 01:10:49;;;;;;;19.88;8.77;;;;;;;;;;5009434;28;20041;-75
2022/03/21 01:13:18;;;;;;;16.58;9.40;;;;;;;;;;5001527;28;20026;-75
2022/03/21 01:15:45;;;;;;;14.30;9.48;;;;;;;;;;5020685;28;20068;-74
2022/03/21 01:18:12;;;;;;;13.07;9.10;;;;;;;;;;4992576;28;20062;-77
2022/03/21 01:20:38;;;;;;;13.35;8.75;;;;;;;;;;5015572;28;20021;-77
2022/03/21 01:23:06;;;;;;;18.23;9.68;;;;;;;;;;5010206;28;20492;-76
2022/03/21 01:25:33;;;;;;;17.70;10.63;;;;;;;;;;5001959;28;20483;-76
2022/03/21 01:27:59;;;;;;;13.27;8.93;;;;;;;;;;5019199;28;20030;-75
2022/03/21 01:30:26;;;;;;;14.48;9.80;;;;;;;;;;5019629;28;20093;-75
2022/03/21 01:32:52;;;;;;;15.85;9.27;;;;;;;;;;5015953;28;20060;-75
2022/03/21 01:35:19;;;;;;;17.00;9.85;;;;;;;;;;5017733;28;20030;-76
2022/03/21 01:37:46;;;;;;;14.60;9.13;;;;;;;;;;5001068;28;20053;-77
2022/03/21 01:40:13;;;;;;;13.30;9.25;;;;;;;;;;5009617;28;20058;-77
2022/03/21 01:42:43;;;;;;;16.55;9.50;;;;;;;;;;5015034;28;20654;-77
2022/03/21 01:45:10;;;;;;;11.82;8.35;;;;;;;;;;5016537;28;20033;-76
2022/03/21 01:47:37;;;;;;;11.80;7.53;;;;;;;;;;5017178;28;20065;-75
2022/03/21 01:50:05;;;;;;;16.23;8.20;;;;;;;;;;5015801;28;20033;-75
2022/03/21 01:52:31;;;;;;;16.88;8.02;;;;;;;;;;5011442;28;20094;-75
2022/03/21 01:57:44;;;;;;;;;;;;;;;;;;5017336;28;20117;-76
2022/03/21 02:00:11;;;;;;;14.13;8.13;;;;;;;;;;5018784;28;19909;-77
2022/03/21 02:02:38;;;;;;;13.50;7.78;;;;;;;;;;5010831;28;20052;-76
2022/03/21 02:05:05;;;;;;;13.32;7.78;;;;;;;;;;4992576;28;20037;-75
2022/03/21 02:07:32;;;;;;;12.63;7.82;;;;;;;;;;4994338;28;20305;-76
2022/03/21 02:09:58;;;;;;;12.75;8.30;;;;;;;;;;5017401;28;20021;-75
2022/03/21 02:12:25;;;;;;;15.57;8.57;;;;;;;;;;5015764;28;20037;-76
2022/03/21 02:14:52;;;;;;;12.60;8.68;;;;;;;;;;5015074;28;20085;-76
2022/03/21 02:17:23;;;;;;;13.90;8.23;;;;;;;;;;5008959;28;20037;-76
2022/03/21 02:19:50;;;;;;;14.70;9.30;;;;;;;;;;4995973;28;20080;-76
2022/03/21 02:22:29;;;;;;;21.67;9.63;;;;;;;;;;4998801;28;20026;-75
2022/03/21 02:25:20;;;;;;;19.65;9.50;;;;;;;;;;5001506;28;20030;-76
2022/03/21 02:27:47;;;;;;;20.17;10.40;;;;;;;;;;5021710;28;20026;-75
2022/03/21 02:30:14;;;;;;;19.42;8.90;;;;;;;;;;5020956;28;20464;-75
2022/03/21 02:32:42;;;;;;;17.17;9.50;;;;;;;;;;5024970;28;20026;-76
2022/03/21 02:35:09;;;;;;;14.10;8.45;;;;;;;;;;5024575;28;20030;-76
2022/03/21 02:37:37;;;;;;;13.07;7.18;;;;;;;;;;5022448;28;20022;-76
2022/03/21 02:40:03;;;;;;;18.00;7.63;;;;;;;;;;5023656;28;20042;-78
2022/03/21 02:42:30;;;;;;;15.90;8.63;;;;;;;;;;5021869;28;20026;-76
2022/03/21 02:44:56;;;;;;;15.40;7.97;;;;;;;;;;5020799;28;20096;-76
2022/03/21 02:47:23;;;;;;;14.52;7.97;;;;;;;;;;5005504;28;20022;-75
2022/03/21 02:49:51;;;;;;;15.70;9.38;;;;;;;;;;5003302;28;20046;-75
2022/03/21 02:52:19;;;;;;;12.93;7.40;;;;;;;;;;5020486;28;20025;-74
2022/03/21 02:54:45;;;;;;;13.00;7.80;;;;;;;;;;5003673;28;20472;-75
2022/03/21 02:57:11;;;;;;;13.68;8.30;;;;;;;;;;5020100;28;20022;-75
2022/03/21 02:59:38;;;;;;;13.05;7.63;;;;;;;;;;5021230;28;20022;-75
2022/03/21 03:02:07;;;;;;;13.88;7.38;;;;;;;;;;5000731;28;20434;-75
2022/03/21 03:04:33;;;;;;;11.20;6.45;;;;;;;;;;5016472;28;20018;-75
2022/03/21 03:07:00;;;;;;;9.88;7.38;;;;;;;;;;5017638;28;20060;-74
2022/03/21 03:09:26;;;;;;;15.23;9.25;;;;;;;;;;5016726;28;20083;-74
2022/03/21 03:11:53;;;;;;;11.63;7.13;;;;;;;;;;4999101;28;20397;-75
2022/03/21 03:14:19;;;;;;;10.25;7.05;;;;;;;;;;5014900;28;20500;-76
2022/03/21 03:16:45;;;;;;;10.68;7.53;;;;;;;;;;5013649;28;20419;-76
2022/03/21 03:19:13;;;;;;;14.73;7.68;;;;;;;;;;5018092;28;20055;-74
2022/03/21 03:21:44;;;;;;;13.82;8.00;;;;;;;;;;5018928;28;20026;-75
2022/03/21 03:24:11;;;;;;;15.90;8.50;;;;;;;;;;5011270;28;20101;-75
2022/03/21 03:26:38;;;;;;;16.70;8.35;;;;;;;;;;5015208;28;20034;-74
2022/03/21 03:29:04;;;;;;;12.60;7.32;;;;;;;;;;5015899;28;20032;-74
2022/03/21 03:31:31;;;;;;;11.65;6.82;;;;;;;;;;5012546;28;20025;-73
2022/03/21 03:33:59;;;;;;;13.93;6.40;;;;;;;;;;4998014;28;20053;-74
2022/03/21 03:36:25;;;;;;;11.68;6.68;;;;;;;;;;5016232;28;20029;-74
2022/03/21 03:38:52;;;;;;;11.38;6.90;;;;;;;;;;5017283;28;20495;-74
2022/03/21 03:41:19;;;;;;;11.73;5.70;;;;;;;;;;5013993;28;20054;-74
2022/03/21 03:43:47;;;;;;;12.38;6.28;;;;;;;;;;5016368;28;20129;-74
2022/03/21 03:46:15;;;;;;;12.00;6.20;;;;;;;;;;4997912;28;20026;-74
2022/03/21 03:48:42;;;;;;;13.18;6.13;;;;;;;;;;4999251;28;20553;-74
2022/03/21 03:51:08;;;;;;;9.52;5.93;;;;;;;;;;5016577;28;20108;-73
2022/03/21 03:53:35;;;;;;;13.82;4.95;;;;;;;;;;5013181;28;20036;-73
2022/03/21 03:56:01;;;;;;;10.35;6.05;;;;;;;;;;5018631;28;20034;-74
2022/03/21 03:58:28;;;;;;;11.48;5.40;;;;;;;;;;5014980;28;20388;-75
2022/03/21 04:00:56;;;;;;;12.18;6.95;;;;;;;;;;5003667;28;20555;-76
2022/03/21 04:06:07;;;;;;;12.05;5.28;;;;;;;;;;5020462;28;20041;-75
2022/03/21 04:08:34;;;;;;;13.13;6.85;;;;;;;;;;5019752;28;20034;-75
2022/03/21 04:11:00;;;;;;;8.07;5.50;;;;;;;;;;5021498;28;20026;-75
2022/03/21 04:13:27;;;;;;;12.20;5.78;;;;;;;;;;5018800;28;20033;-75
2022/03/21 04:15:53;;;;;;;14.00;6.50;;;;;;;;;;5019925;28;20034;-74
2022/03/21 04:18:20;;;;;;;12.38;6.80;;;;;;;;;;4999207;28;20026;-73
2022/03/21 04:20:50;;;;;;;10.27;5.47;;;;;;;;;;5015216;28;20056;-74
2022/03/21 04:23:18;;;;;;;12.75;6.35;;;;;;;;;;4999770;28;20053;-76
2022/03/21 04:25:45;;;;;;;9.75;6.50;;;;;;;;;;5013537;28;20038;-74
2022/03/21 04:28:12;;;;;;;13.88;6.28;;;;;;;;;;5011548;28;20097;-73
2022/03/21 04:30:39;;;;;;;10.20;5.60;;;;;;;;;;5000065;28;20103;-75
2022/03/21 04:33:06;;;;;;;13.15;6.55;;;;;;;;;;5014940;28;20500;-74
2022/03/21 04:35:32;;;;;;;13.05;6.07;;;;;;;;;;5015424;28;20033;-74
2022/03/21 04:37:59;;;;;;;13.15;5.57;;;;;;;;;;4998848;28;20026;-75
2022/03/21 04:40:25;;;;;;;10.93;5.80;;;;;;;;;;5016323;28;20054;-76
2022/03/21 04:42:51;;;;;;;11.88;5.88;;;;;;;;;;5016555;28;20045;-74
2022/03/21 04:45:18;;;;;;;10.43;6.53;;;;;;;;;;5015881;28;20068;-73
2022/03/21 04:47:45;;;;;;;8.80;5.72;;;;;;;;;;5013395;28;20038;-74
2022/03/21 04:50:12;;;;;;;12.35;6.20;;;;;;;;;;5011433;28;20041;-75
2022/03/21 04:52:39;;;;;;;12.40;5.53;;;;;;;;;;5001705;28;20091;-74
2022/03/21 04:55:09;;;;;;;9.18;5.68;;;;;;;;;;5015963;28;20037;-75
2022/03/21 04:57:36;;;;;;;10.27;6.13;;;;;;;;;;5015656;28;20400;-74
2022/03/21 05:00:06;;;;;;;11.52;5.93;;;;;;;;;;5015464;28;20030;-74
2022/03/21 05:02:32;;;;;;;12.80;6.00;;;;;;;;;;5013537;28;20076;-74
2022/03/21 05:04:58;;;;;;;11.93;6.07;;;;;;;;;;5000557;28;20095;-74
2022/03/21 05:07:25;;;;;;;10.80;6.63;;;;;;;;;;5011822;28;20026;-74
2022/03/21 05:09:51;;;;;;;17.13;7.25;;;;;;;;;;4998827;28;20034;-74
2022/03/21 05:12:20;;;;;;;20.73;7.85;;;;;;;;;;5011029;28;20026;-74
2022/03/21 05:14:47;;;;;;;11.35;5.28;;;;;;;;;;5014924;28;20029;-73
2022/03/21 05:17:17;;;;;;;15.73;6.38;;;;;;;;;;5017566;28;20320;-75
2022/03/21 05:19:44;;;;;;;14.40;5.88;;;;;;;;;;5015733;28;20026;-74
2022/03/21 05:22:10;;;;;;;12.38;6.07;;;;;;;;;;5003193;28;20115;-73
2022/03/21 05:35:56;;;;;;;13.10;5.50;;;;;;;;;;5012734;28;20461;-72
2022/03/21 05:38:26;;;;;;;12.05;5.93;;;;;;;;;;4996945;28;20125;-75
2022/03/21 05:40:56;;;;;;;12.68;6.82;;;;;;;;;;5014263;28;20046;-76
2022/03/21 05:43:33;;;;;;;12.25;5.13;;;;;;;;;;4987804;28;20538;-75
2022/03/21 05:46:06;;;;;;;14.77;5.43;;;;;;;;;;5006047;28;20096;-75
2022/03/21 05:48:58;;;;;;;9.60;5.53;;;;;;;;;;5012646;28;20606;-74
2022/03/21 05:51:29;;;;;;;14.90;6.63;;;;;;;;;;5012280;28;20022;-75
2022/03/21 05:53:57;;;;;;;13.48;5.53;;;;;;;;;;5012863;28;20092;-74
2022/03/21 05:56:25;;;;;;;12.82;5.80;;;;;;;;;;5010768;28;20436;-74
2022/03/21 05:58:55;;;;;;;10.23;5.35;;;;;;;;;;5015712;28;20030;-75
2022/03/21 06:01:22;;;;;;;11.05;5.68;;;;;;;;;;5002709;28;20029;-76
2022/03/21 06:03:53;;;;;;;11.80;5.53;;;;;;;;;;5011385;28;20022;-76
2022/03/21 06:06:22;;;;;;;10.65;5.80;;;;;;;;;;5011804;28;20025;-75
2022/03/21 06:08:49;;;;;;;10.75;5.60;;;;;;;;;;5015816;28;20026;-74
2022/03/21 06:11:17;;;;;;;13.90;6.10;;;;;;;;;;5014475;28;20022;-73
2022/03/21 06:13:44;;;;;;;10.73;5.80;;;;;;;;;;5019161;28;20430;-73
2022/03/21 06:16:12;;;;;;;13.52;8.32;;;;;;;;;;5000953;28;20053;-75
2022/03/21 06:18:39;;;;;;;19.77;5.82;;;;;;;;;;5020312;28;20754;-73
2022/03/21 06:21:08;;;;;;;11.80;5.85;;;;;;;;;;5017132;28;20037;-74
2022/03/21 06:23:34;;;;;;;13.98;6.30;;;;;;;;;;5000803;28;20109;-73
2022/03/21 06:26:01;;;;;;;14.63;6.47;;;;;;;;;;4997016;28;20048;-73
2022/03/21 06:28:29;;;;;;;13.63;6.40;;;;;;;;;;5019004;28;20107;-73
2022/03/21 06:30:56;;;;;;;12.18;7.38;;;;;;;;;;5019154;28;20042;-73
2022/03/21 06:33:25;;;;;;;12.23;7.38;;;;;;;;;;5020802;28;20033;-73
2022/03/21 06:35:51;;;;;;;12.70;6.15;;;;;;;;;;5017986;28;20759;-73
2022/03/21 06:38:18;;;;;;;13.98;6.95;;;;;;;;;;5021985;28;20033;-74
2022/03/21 06:40:44;;;;;;;13.88;7.18;;;;;;;;;;5018084;28;20559;-72
2022/03/21 06:43:11;;;;;;;14.82;7.20;;;;;;;;;;4995363;28;20224;-73
2022/03/21 06:45:38;;;;;;;14.20;6.95;;;;;;;;;;5016205;28;20482;-73
2022/03/21 06:48:05;;;;;;;19.98;6.78;;;;;;;;;;5017347;28;20048;-75
2022/03/21 06:50:32;;;;;;;14.73;7.32;;;;;;;;;;5020336;28;20030;-74
2022/03/21 06:52:59;;;;;;;14.82;7.35;;;;;;;;;;5022523;28;20026;-74
2022/03/21 06:55:25;;;;;;;17.85;8.00;;;;;;;;;;5022027;28;20113;-74
2022/03/21 06:57:52;;;;;;;11.88;6.55;;;;;;;;;;5004196;28;20037;-75
2022/03/21 07:00:19;;;;;;;13.98;7.47;;;;;;;;;;5003572;28;20029;-74
2022/03/21 07:02:46;;;;;;;12.45;6.95;;;;;;;;;;4995671;28;20045;-73
2022/03/21 07:05:13;;;;;;;12.50;6.93;;;;;;;;;;4999612;28;20065;-74
2022/03/21 07:07:41;;;;;;;15.77;7.40;;;;;;;;;;5015118;28;20296;-73
2022/03/21 07:10:09;;;;;;;15.05;8.13;;;;;;;;;;4998209;28;20044;-74
2022/03/21 07:12:35;;;;;;;14.05;7.03;;;;;;;;;;4998912;28;20030;-73
2022/03/21 07:15:02;;;;;;;11.93;6.53;;;;;;;;;;5011462;28;20033;-74
2022/03/21 07:17:29;;;;;;;16.45;7.65;;;;;;;;;;5016114;28;20081;-75
2022/03/21 07:19:56;;;;;;;14.20;6.95;;;;;;;;;;5010001;28;20030;-74
2022/03/21 07:22:23;;;;;;;13.75;7.22;;;;;;;;;;5013635;28;20026;-74
2022/03/21 07:24:50;;;;;;;15.95;7.22;;;;;;;;;;4993953;28;20435;-75
2022/03/21 07:27:17;;;;;;;14.38;7.88;;;;;;;;;;5014224;28;20014;-75
2022/03/21 07:29:43;;;;;;;12.90;6.65;;;;;;;;;;4995831;28;20527;-73
2022/03/21 07:32:10;;;;;;;17.00;7.28;;;;;;;;;;4992024;28;20778;-77
2022/03/21 07:34:36;;;;;;;14.45;9.55;;;;;;;;;;4980070;28;20084;-77
2022/03/21 07:37:06;;;;;;;11.90;7.20;;;;;;;;;;5005821;28;20037;-77
2022/03/21 07:39:34;;;;;;;12.90;7.70;;;;;;;;;;5010170;28;20026;-77
2022/03/21 07:42:02;;;;;;;11.27;6.93;;;;;;;;;;4992465;28;20088;-77
2022/03/21 07:47:20;;;;;;;15.20;7.85;;;;;;;;;;5015453;28;20053;-75
2022/03/21 07:49:56;;;;;;;16.00;7.03;;;;;;;;;;5014464;28;20112;-77
2022/03/21 07:52:23;;;;;;;13.82;7.93;;;;;;;;;;4992429;28;20036;-75
2022/03/21 07:54:53;;;;;;;14.65;6.90;;;;;;;;;;5011229;28;20526;-76
2022/03/21 07:57:23;;;;;;;17.63;7.60;;;;;;;;;;4995795;28;20030;-74
2022/03/21 07:59:51;;;;;;;16.80;8.30;;;;;;;;;;4994019;28;20032;-75
2022/03/21 08:02:19;;;;;;;13.68;7.07;;;;;;;;;;5011194;28;20029;-76
2022/03/21 08:04:47;;;;;;;13.65;7.63;;;;;;;;;;5013742;28;20089;-75
2022/03/21 08:07:14;;;;;;;16.20;8.02;;;;;;;;;;5013398;28;20044;-74
2022/03/21 08:09:41;;;;;;;13.20;7.97;;;;;;;;;;5012724;28;20036;-74
2022/03/21 08:12:08;;;;;;;13.20;7.57;;;;;;;;;;5010570;28;20439;-74
2022/03/21 08:14:35;;;;;;;14.82;7.75;;;;;;;;;;5010014;28;20104;-74
2022/03/21 08:17:03;;;;;;;13.10;7.78;;;;;;;;;;5006313;28;20116;-74
2022/03/21 08:19:30;;;;;;;13.85;7.45;;;;;;;;;;5012224;28;20022;-76
2022/03/21 08:21:56;;;;;;;13.98;7.72;;;;;;;;;;5009777;28;20079;-74
2022/03/21 08:24:24;;;;;;;12.25;7.63;;;;;;;;;;4997675;28;20495;-75
2022/03/21 08:26:54;;;;;;;13.52;8.35;;;;;;;;;;4993646;28;20120;-76
2022/03/21 08:29:20;;;;;;;15.60;8.23;;;;;;;;;;4984985;28;20037;-78
2022/03/21 08:31:50;;;;;;;17.40;8.32;;;;;;;;;;5006583;28;20040;-77
2022/03/21 08:34:17;;;;;;;15.70;8.80;;;;;;;;;;5005378;28;20056;-74
2022/03/21 08:36:45;;;;;;;14.55;8.27;;;;;;;;;;5006132;28;20030;-76
2022/03/21 08:39:11;;;;;;;12.90;7.78;;;;;;;;;;4986126;28;20034;-74
2022/03/21 08:44:06;;;;;;;16.35;9.07;;;;;;;;;;4986178;28;20049;-74
2022/03/21 08:46:33;;;;;;;20.13;9.18;;;;;;;;;;4978821;28;20041;-75
2022/03/21 08:51:44;;;;;;;16.60;9.10;;;;;;;;;;4999620;28;20080;-73
2022/03/21 08:54:11;;;;;;;14.63;9.65;;;;;;;;;;4983178;28;20655;-73
2022/03/21 08:56:37;;;;;;;22.73;9.82;;;;;;;;;;4998078;28;20554;-73
2022/03/21 08:59:03;;;;;;;21.25;10.77;;;;;;;;;;5001716;28;20072;-73
2022/03/21 09:01:29;;;;;;;14.63;9.23;;;;;;;;;;4998133;28;20049;-74
2022/03/21 09:03:56;;;;;;;18.08;9.02;;;;;;;;;;5001912;28;20060;-72
2022/03/21 09:06:22;;;;;;;16.27;9.65;;;;;;;;;;5002788;28;20030;-73
2022/03/21 09:08:49;;;;;;;20.55;10.43;;;;;;;;;;5001834;28;20060;-73
2022/03/21 09:11:17;;;;;;;18.58;10.10;;;;;;;;;;5000668;28;20034;-73
2022/03/21 09:13:44;;;;;;;18.23;10.18;;;;;;;;;;5001856;28;20525;-74
2022/03/21 09:16:11;;;;;;;17.00;10.35;;;;;;;;;;5003013;28;20057;-75
2022/03/21 09:18:37;;;;;;;16.42;10.45;;;;;;;;;;5001173;28;20030;-75
2022/03/21 09:21:03;;;;;;;15.77;10.73;;;;;;;;;;5002448;28;20033;-75
2022/03/21 09:23:29;;;;;;;17.05;10.15;;;;;;;;;;5002497;28;20030;-74
2022/03/21 09:25:55;;;;;;;17.17;9.80;;;;;;;;;;5000124;28;20034;-74
2022/03/21 09:28:21;;;;;;;21.08;11.00;;;;;;;;;;5004299;28;20038;-75
2022/03/21 09:30:48;;;;;;;16.83;9.98;;;;;;;;;;4991967;28;20033;-74
2022/03/21 09:33:17;;;;;;;21.15;10.65;;;;;;;;;;5007377;28;20068;-72
2022/03/21 09:35:43;;;;;;;17.98;10.15;;;;;;;;;;4987373;28;20029;-72
2022/03/21 09:38:10;;;;;;;20.60;11.02;;;;;;;;;;4990067;28;20108;-74
2022/03/21 09:40:36;;;;;;;23.10;11.90;;;;;;;;;;5006119;28;20029;-75
2022/03/21 09:43:02;;;;;;;15.15;9.82;;;;;;;;;;5002982;28;20602;-73
2022/03/21 09:45:29;;;;;;;14.73;10.07;;;;;;;;;;5007047;28;20509;-74
2022/03/21 09:48:11;;;;;;;16.30;10.35;;;;;;;;;;5008125;28;21406;-74
2022/03/21 09:50:39;;;;;;;20.23;11.50;;;;;;;;;;5006432;28;20130;-75
2022/03/21 09:53:06;;;;;;;17.10;10.27;;;;;;;;;;4991719;28;20034;-75
2022/03/21 09:55:32;;;;;;;19.92;10.48;;;;;;;;;;5004650;28;21414;-73
2022/03/21 09:57:59;;;;;;;17.63;9.80;;;;;;;;;;5007804;28;20022;-73
2022/03/21 10:00:25;;;;;;;17.00;10.77;;;;;;;;;;5005401;28;20123;-73
2022/03/21 10:02:52;;;;;;;22.73;11.63;;;;;;;;;;5007216;28;20022;-73
2022/03/21 10:05:38;;;;;;;19.85;10.80;;;;;;;;;;5004630;28;20029;-72
2022/03/21 10:08:04;;;;;;;;;;;;;;;;;;5006346;28;20030;-71
2022/03/21 10:10:30;;;;;;;19.55;10.43;;;;;;;;;;5004491;28;19971;-73
2022/03/21 10:12:56;;;;;;;19.45;10.68;;;;;;;;;;4991439;28;20530;-74
2022/03/21 10:15:28;;;;;;;19.13;10.40;;;;;;;;;;4989180;28;20038;-73
2022/03/21 10:18:06;;;;;;;17.58;10.73;;;;;;;;;;5009697;28;20109;-73
2022/03/21 10:20:33;;;;;;;18.30;10.88;;;;;;;;;;5013276;28;20036;-72
2022/03/21 10:23:14;;;;;;;21.33;11.40;;;;;;;;;;4990332;28;20025;-73
2022/03/21 10:25:40;;;;;;;20.48;11.18;;;;;;;;;;5004140;28;20034;-74
2022/03/21 10:28:06;;;;;;;15.77;11.00;;;;;;;;;;5001952;28;20034;-73
2022/03/21 10:30:32;;;;;;;23.80;11.95;;;;;;;;;;5005565;28;20936;-72
2022/03/21 10:32:59;;;;;;;17.80;11.43;;;;;;;;;;5004002;28;20040;-71
2022/03/21 10:35:30;;;;;;;20.05;12.10;;;;;;;;;;5002753;28;20029;-71
2022/03/21 10:38:00;;;;;;;20.55;11.18;;;;;;;;;;5002545;28;20041;-74
2022/03/21 10:40:28;;;;;;;18.52;11.30;;;;;;;;;;5007433;28;20499;-73
2022/03/21 10:42:59;;;;;;;23.98;12.05;;;;;;;;;;5005661;28;20053;-73
2022/03/21 10:45:37;;;;;;;19.80;10.98;;;;;;;;;;5001744;28;20939;-71
2022/03/21 10:48:05;;;;;;;15.13;10.60;;;;;;;;;;5005875;28;20038;-72
2022/03/21 10:50:32;;;;;;;16.45;10.73;;;;;;;;;;5003704;28;20030;-74
2022/03/21 10:53:11;;;;;;;23.13;10.80;;;;;;;;;;4984305;28;20127;-75
2022/03/21 10:55:37;;;;;;;18.58;10.60;;;;;;;;;;5004183;28;20026;-73
2022/03/21 10:58:04;;;;;;;19.98;12.07;;;;;;;;;;5002565;28;20108;-73
2022/03/21 11:00:30;;;;;;;20.13;11.20;;;;;;;;;;5006576;28;20026;-72
2022/03/21 11:02:56;;;;;;;21.77;10.82;;;;;;;;;;5004314;28;20033;-71
2022/03/21 11:05:23;;;;;;;18.13;10.48;;;;;;;;;;5007144;28;20029;-73
2022/03/21 11:07:49;;;;;;;23.05;11.35;;;;;;;;;;5006174;28;20056;-73
2022/03/21 11:10:18;;;;;;;16.00;10.88;;;;;;;;;;5002214;28;20069;-73
2022/03/21 11:12:47;;;;;;;23.25;10.95;;;;;;;;;;5004089;28;20041;-73
2022/03/21 11:15:14;;;;;;;18.77;10.45;;;;;;;;;;4984347;28;20037;-72
2022/03/21 11:17:41;;;;;;;16.65;10.52;;;;;;;;;;5004232;28;20029;-74
2022/03/21 11:20:08;;;;;;;19.42;11.77;;;;;;;;;;5003980;28;20049;-73
2022/03/21 11:22:35;;;;;;;21.27;11.43;;;;;;;;;;5005159;28;20037;-73
2022/03/21 11:25:02;;;;;;;17.73;10.40;;;;;;;;;;5005354;28;20034;-73
2022/03/21 11:27:31;;;;;;;17.52;11.48;;;;;;;;;;4984504;28;20495;-77
2022/03/21 11:29:57;;;;;;;24.67;12.60;;;;;;;;;;5005198;28;20262;-71
2022/03/21 11:32:42;;;;;;;20.90;11.25;;;;;;;;;;5004131;28;20088;-71
2022/03/21 11:35:23;;;;;;;18.70;10.43;;;;;;;;;;5006077;28;20033;-71
2022/03/21 11:37:50;;;;;;;14.93;10.68;;;;;;;;;;5002270;28;20649;-71
2022/03/21 11:40:33;;;;;;;19.05;11.07;;;;;;;;;;4986211;28;20171;-72
2022/03/21 11:43:18;;;;;;;17.33;11.68;;;;;;;;;;4986618;28;20535;-72
2022/03/21 11:45:48;;;;;;;19.48;10.00;;;;;;;;;;5004202;28;20042;-72
2022/03/21 11:48:22;;;;;;;24.08;10.68;;;;;;;;;;5007594;28;21489;-71
2022/03/21 11:50:50;;;;;;;18.83;10.77;;;;;;;;;;4985584;28;20072;-72
2022/03/21 11:53:17;;;;;;;20.45;12.80;;;;;;;;;;5005424;28;20400;-72
2022/03/21 11:55:44;;;;;;;16.20;10.82;;;;;;;;;;4985450;28;20484;-73
2022/03/21 11:58:23;;;;;;;17.38;11.23;;;;;;;;;;4987265;28;20036;-73
2022/03/21 12:01:05;;;;;;;19.00;10.43;;;;;;;;;;5009881;28;20096;-72
2022/03/21 12:03:31;;;;;;;19.35;11.45;;;;;;;;;;5003464;28;20034;-73
2022/03/21 12:05:58;;;;;;;16.48;11.32;;;;;;;;;;5002061;28;20133;-76
2022/03/21 12:08:31;;;;;;;18.17;11.07;;;;;;;;;;5004725;28;20364;-75
2022/03/21 12:10:57;;;;;;;16.55;10.68;;;;;;;;;;4985666;28;20025;-72
2022/03/21 12:13:43;;;;;;;18.85;10.75;;;;;;;;;;5089345;27;20501;-75
2022/03/21 12:16:18;;;;;;;21.58;12.48;;;;;;;;;;5094158;28;20024;-74
2022/03/21 12:18:58;;;;;;;19.45;11.23;;;;;;;;;;5087867;28;20073;-75
2022/03/21 12:21:24;;;;;;;21.67;10.85;;;;;;;;;;5088355;28;20023;-75
2022/03/21 12:24:10;;;;;;;20.45;11.63;;;;;;;;;;5089954;28;20026;-75
2022/03/21 12:26:37;;;;;;;16.80;11.43;;;;;;;;;;5089968;28;20024;-75
2022/03/21 12:31:48;;;;;;;16.95;9.90;;;;;;;;;;5088954;28;20055;-76
2022/03/21 12:34:33;;;;;;;18.95;11.05;;;;;;;;;;5103322;28;20027;-75
2022/03/21 12:37:06;;;;;;;19.92;11.00;;;;;;;;;;5088854;28;20035;-76
2022/03/21 12:39:33;;;;;;;17.42;10.77;;;;;;;;;;5087903;28;20032;-74
2022/03/21 12:42:00;;;;;;;17.52;10.85;;;;;;;;;;5082004;28;20032;-76
2022/03/21 12:44:26;;;;;;;16.20;10.23;;;;;;;;;;5087640;28;20393;-75
2022/03/21 12:46:59;;;;;;;22.10;10.88;;;;;;;;;;5114922;27;20040;-76
2022/03/21 12:49:25;;;;;;;15.23;11.07;;;;;;;;;;5087788;28;20048;-75
2022/03/21 12:51:57;;;;;;;18.20;11.55;;;;;;;;;;5086223;28;20029;-76
2022/03/21 12:54:26;;;;;;;17.92;10.82;;;;;;;;;;5088678;28;20027;-74
2022/03/21 12:57:04;;;;;;;16.08;10.70;;;;;;;;;;5088443;28;20034;-76
2022/03/21 12:59:30;;;;;;;18.50;10.65;;;;;;;;;;5081627;28;20035;-74
2022/03/21 13:01:56;;;;;;;17.52;10.27;;;;;;;;;;5087741;28;20032;-75
2022/03/21 13:12:40;;;;;;;21.25;11.15;;;;;;;;;;5089324;28;20066;-77
2022/03/21 13:15:10;;;;;;;15.85;10.82;;;;;;;;;;5088715;28;20024;-78
2022/03/21 13:17:49;;;;;;;18.95;11.30;;;;;;;;;;5082866;28;20024;-77
2022/03/21 13:20:25;;;;;;;17.80;11.90;;;;;;;;;;5087343;28;20146;-75
2022/03/21 13:22:51;;;;;;;18.10;10.68;;;;;;;;;;5081545;28;20086;-76
2022/03/21 13:25:22;;;;;;;17.42;10.52;;;;;;;;;;5069622;28;20042;-75
2022/03/21 13:27:49;;;;;;;17.92;11.10;;;;;;;;;;5075474;28;20461;-75
2022/03/21 13:30:15;;;;;;;15.90;10.95;;;;;;;;;;5069491;28;20025;-75
2022/03/21 13:32:42;;;;;;;20.23;10.63;;;;;;;;;;5075671;28;20619;-75
2022/03/21 13:35:08;;;;;;;19.92;11.07;;;;;;;;;;5068895;28;20397;-75
2022/03/21 13:37:34;;;;;;;15.98;10.02;;;;;;;;;;5074564;28;21351;-75
2022/03/21 13:40:05;;;;;;;17.30;9.80;;;;;;;;;;5076343;28;20042;-75
2022/03/21 13:42:31;;;;;;;15.38;11.07;;;;;;;;;;5063907;28;20048;-74
2022/03/21 13:45:02;;;;;;;15.27;9.93;;;;;;;;;;5071224;28;20028;-77
2022/03/21 13:47:28;;;;;;;15.02;9.73;;;;;;;;;;5069861;28;20205;-80
2022/03/21 13:49:56;;;;;;;13.23;10.05;;;;;;;;;;5070833;28;20036;-78
2022/03/21 13:52:44;;;;;;;13.32;10.10;;;;;;;;;;5068547;28;20534;-77
2022/03/21 13:55:11;;;;;;;21.20;9.85;;;;;;;;;;5076775;28;20510;-75
2022/03/21 13:57:48;;;;;;;14.02;9.70;;;;;;;;;;5070833;28;20016;-75
2022/03/21 14:00:15;;;;;;;12.45;9.55;;;;;;;;;;5085328;28;20098;-74
2022/03/21 14:02:43;;;;;;;15.85;9.45;;;;;;;;;;5078025;28;20055;-75
2022/03/21 14:05:28;;;;;;;17.15;10.05;;;;;;;;;;5078177;28;20029;-74
2022/03/21 14:08:09;;;;;;;17.40;9.85;;;;;;;;;;5072237;28;20086;-77
2022/03/21 14:10:38;;;;;;;16.05;10.05;;;;;;;;;;5069963;28;20028;-77
2022/03/21 14:13:12;;;;;;;14.93;10.40;;;;;;;;;;5075251;28;20468;-76
2022/03/21 14:15:38;;;;;;;13.27;8.87;;;;;;;;;;5073567;28;20063;-76
2022/03/21 14:18:05;;;;;;;13.13;9.40;;;;;;;;;;5063446;28;20107;-73
2022/03/21 14:20:31;;;;;;;14.63;8.80;;;;;;;;;;5067609;28;20034;-73
2022/03/21 14:22:57;;;;;;;13.90;9.32;;;;;;;;;;5076391;28;20032;-75
2022/03/21 14:28:08;;;;;;;14.48;9.15;;;;;;;;;;5073744;28;20877;-74
2022/03/21 14:30:36;;;;;;;14.23;10.13;;;;;;;;;;5065373;28;20047;-74
2022/03/21 14:33:02;;;;;;;13.52;8.77;;;;;;;;;;5062762;28;20040;-75
2022/03/21 14:35:28;;;;;;;17.77;9.57;;;;;;;;;;5062532;28;20114;-74
2022/03/21 14:37:54;;;;;;;16.20;9.40;;;;;;;;;;5074174;28;20054;-76
2022/03/21 14:40:20;;;;;;;13.07;9.23;;;;;;;;;;5079636;28;20035;-75
2022/03/21 14:42:47;;;;;;;14.65;10.18;;;;;;;;;;5075615;28;20577;-76
2022/03/21 14:45:13;;;;;;;14.30;9.13;;;;;;;;;;5088338;28;20490;-75
2022/03/21 14:47:40;;;;;;;19.08;9.38;;;;;;;;;;5075794;28;20313;-76
2022/03/21 14:50:07;;;;;;;14.95;9.00;;;;;;;;;;5070907;28;20043;-75
2022/03/21 14:52:33;;;;;;;14.77;9.25;;;;;;;;;;5088276;28;20044;-75
2022/03/21 14:54:59;;;;;;;13.73;8.25;;;;;;;;;;5085854;28;20056;-75
2022/03/21 14:57:26;;;;;;;14.93;8.43;;;;;;;;;;5074283;28;20070;-77
2022/03/21 14:59:52;;;;;;;16.88;9.73;;;;;;;;;;5083075;28;20059;-74
2022/03/21 15:02:18;;;;;;;14.00;9.30;;;;;;;;;;5082576;28;20123;-76
2022/03/21 15:04:44;;;;;;;17.38;9.75;;;;;;;;;;5074162;28;20556;-76
2022/03/21 15:07:12;;;;;;;14.48;10.07;;;;;;;;;;5084708;28;20036;-78
2022/03/21 15:12:24;;;;;;;17.13;9.57;;;;;;;;;;5071910;28;20109;-74
2022/03/21 15:14:50;;;;;;;13.57;8.07;;;;;;;;;;5073587;28;20024;-74